Roundup, MT

11:09 PM MST on February 26, 2015 (GMT -0700)
Jordan | Change Station
CLOSE
Current Station
Airport
Location: Jordan,
Elevation: 2661 ft
Nearby Weather Stations

Elev 2661 ft 47.33 °N, 106.95 °W | Updated 21 minutes ago

Clear
Clear
1 °F
Feels Like 1 °F
N
0
Wind Variable Wind from North
Gusts 10 mph

Today
High -- | Low -- °F
--% Chance of Precip.
Yesterday
High -- | Low -- °F
Precip. -- in
6:59 AM 5:55 PM
Waxing Gibbous, 66% visible
Pressure 30.48 in
Visibility -9999.0 miles
Clouds
Dew Point -5 °F
Humidity 75%
Rainfall 0.00 in
Snow Depth Not available.
UV Not available.
Pollen .10 out of 12
Air Quality Not available.
Flu Activity Not available.
METAR KJDN 270548Z AUTO 00000KT M17/M21 A3027 RMK AO1 SLP319 T11721206 11106 21172 58026

More Conditions Fewer Conditions

Pressure 30.48 in
Visibility -9999.0 miles
Clouds
Dew Point -5 °F
Humidity 75%
Rainfall 0.00 in
Snow Depth Not available.
UV Not available.
Pollen .10 out of 12
Air Quality Not available.
Flu Activity Not available.
METAR KJDN 270548Z AUTO 00000KT M17/M21 A3027 RMK AO1 SLP319 T11721206 11106 21172 58026

More Conditions Fewer Conditions

10-Day Weather Forecast

Almanac

Astronomy

Feb. 26, 2015 Rise Set
Actual Time
Civil Twilight
Nautical Twilight
Astronomical Twilight
Moon
Length of Visible Light
Length of Day
Tomorrow will be .
, % of the Moon is Illuminated

Today's Extremes

State Highs State Lows

Community

WunderPhotos

Upload Photos

1,800,643 photos uploaded!

WunderBlogs® & News

Nearby

Air Quality

  Air Quality AQ Index Pollutant
Not available.

Snow Depth

Station Depth Elevation

Earthquake Activity

City Distance Mag. Time & Date
Minimum magnitude displayed is 2.5.

Coastal Water Temperatures

Place Temperature

Nearby Weather Stations